sensor_id;sensor_type;location;lat;lon;timestamp;pressure;altitude;pressure_sealevel;temperature;humidity
54872;BME280;43914;57.680;11.982;2024-03-06T00:01:42;101936.68;;;0.76;100.00
54872;BME280;43914;57.680;11.982;2024-03-06T00:04:08;101935.85;;;0.75;100.00
54872;BME280;43914;57.680;11.982;2024-03-06T00:06:33;101939.05;;;0.75;100.00
54872;BME280;43914;57.680;11.982;2024-03-06T00:08:59;101940.85;;;0.74;100.00
54872;BME280;43914;57.680;11.982;2024-03-06T00:11:25;101942.77;;;0.71;100.00
54872;BME280;43914;57.680;11.982;2024-03-06T00:13:51;101944.96;;;0.70;100.00
54872;BME280;43914;57.680;11.982;2024-03-06T00:16:16;101941.51;;;0.69;100.00
54872;BME280;43914;57.680;11.982;2024-03-06T00:18:42;101946.53;;;0.70;100.00
54872;BME280;43914;57.680;11.982;2024-03-06T00:21:07;101946.23;;;0.69;100.00
54872;BME280;43914;57.680;11.982;2024-03-06T00:23:34;101940.31;;;0.68;100.00
54872;BME280;43914;57.680;11.982;2024-03-06T00:26:00;101941.81;;;0.66;100.00
54872;BME280;43914;57.680;11.982;2024-03-06T00:28:27;101944.63;;;0.67;100.00
54872;BME280;43914;57.680;11.982;2024-03-06T00:30:55;101943.60;;;0.66;100.00
54872;BME280;43914;57.680;11.982;2024-03-06T00:33:20;101931.61;;;0.66;100.00
54872;BME280;43914;57.680;11.982;2024-03-06T00:35:46;101940.30;;;0.65;100.00
54872;BME280;43914;57.680;11.982;2024-03-06T00:38:11;101938.83;;;0.63;100.00
54872;BME280;43914;57.680;11.982;2024-03-06T00:40:38;101941.18;;;0.62;100.00
54872;BME280;43914;57.680;11.982;2024-03-06T00:43:04;101941.89;;;0.62;100.00
54872;BME280;43914;57.680;11.982;2024-03-06T00:45:30;101942.11;;;0.62;100.00
54872;BME280;43914;57.680;11.982;2024-03-06T00:47:55;101936.52;;;0.61;100.00
54872;BME280;43914;57.680;11.982;2024-03-06T00:50:21;101936.42;;;0.59;100.00
54872;BME280;43914;57.680;11.982;2024-03-06T00:52:47;101928.90;;;0.58;100.00
54872;BME280;43914;57.680;11.982;2024-03-06T00:55:14;101928.45;;;0.56;100.00
54872;BME280;43914;57.680;11.982;2024-03-06T00:57:39;101929.09;;;0.58;100.00
54872;BME280;43914;57.680;11.982;2024-03-06T01:00:05;101929.66;;;0.57;100.00
54872;BME280;43914;57.680;11.982;2024-03-06T01:02:40;101923.89;;;0.53;100.00
54872;BME280;43914;57.680;11.982;2024-03-06T01:05:06;101929.91;;;0.55;100.00
54872;BME280;43914;57.680;11.982;2024-03-06T01:07:37;101932.20;;;0.56;100.00
54872;BME280;43914;57.680;11.982;2024-03-06T01:10:05;101935.56;;;0.55;100.00
54872;BME280;43914;57.680;11.982;2024-03-06T01:12:32;101935.73;;;0.56;100.00
54872;BME280;43914;57.680;11.982;2024-03-06T01:14:57;101933.81;;;0.55;100.00
54872;BME280;43914;57.680;11.982;2024-03-06T01:17:23;101940.77;;;0.57;100.00
54872;BME280;43914;57.680;11.982;2024-03-06T01:19:49;101934.55;;;0.58;100.00
54872;BME280;43914;57.680;11.982;2024-03-06T01:22:15;101933.95;;;0.60;100.00
54872;BME280;43914;57.680;11.982;2024-03-06T01:24:41;101930.34;;;0.61;100.00
54872;BME280;43914;57.680;11.982;2024-03-06T01:27:06;101928.02;;;0.61;100.00
54872;BME280;43914;57.680;11.982;2024-03-06T01:29:32;101926.20;;;0.62;100.00
54872;BME280;43914;57.680;11.982;2024-03-06T01:31:58;101929.98;;;0.64;100.00
54872;BME280;43914;57.680;11.982;2024-03-06T01:34:24;101927.11;;;0.65;100.00
54872;BME280;43914;57.680;11.982;2024-03-06T01:36:50;101925.50;;;0.65;100.00
54872;BME280;43914;57.680;11.982;2024-03-06T01:39:16;101924.25;;;0.65;100.00
54872;BME280;43914;57.680;11.982;2024-03-06T01:41:46;101924.79;;;0.65;100.00
54872;BME280;43914;57.680;11.982;2024-03-06T01:44:12;101922.66;;;0.65;100.00
54872;BME280;43914;57.680;11.982;2024-03-06T01:46:39;101919.84;;;0.65;100.00
54872;BME280;43914;57.680;11.982;2024-03-06T01:49:04;101915.95;;;0.66;100.00
54872;BME280;43914;57.680;11.982;2024-03-06T01:51:31;101917.66;;;0.66;100.00
54872;BME280;43914;57.680;11.982;2024-03-06T01:53:57;101917.89;;;0.68;100.00
54872;BME280;43914;57.680;11.982;2024-03-06T01:56:24;101918.54;;;0.69;100.00
54872;BME280;43914;57.680;11.982;2024-03-06T01:58:49;101917.33;;;0.69;100.00
54872;BME280;43914;57.680;11.982;2024-03-06T02:01:16;101921.72;;;0.69;100.00
54872;BME280;43914;57.680;11.982;2024-03-06T02:03:45;101917.83;;;0.69;100.00
54872;BME280;43914;57.680;11.982;2024-03-06T02:06:11;101907.69;;;0.71;100.00
54872;BME280;43914;57.680;11.982;2024-03-06T02:08:38;101906.59;;;0.71;100.00
54872;BME280;43914;57.680;11.982;2024-03-06T02:11:05;101906.40;;;0.72;100.00
54872;BME280;43914;57.680;11.982;2024-03-06T02:13:33;101904.68;;;0.71;100.00
54872;BME280;43914;57.680;11.982;2024-03-06T02:15:58;101904.98;;;0.72;100.00
54872;BME280;43914;57.680;11.982;2024-03-06T02:18:24;101900.54;;;0.73;100.00
54872;BME280;43914;57.680;11.982;2024-03-06T02:20:50;101903.92;;;0.72;100.00
54872;BME280;43914;57.680;11.982;2024-03-06T02:23:16;101897.04;;;0.72;100.00
54872;BME280;43914;57.680;11.982;2024-03-06T02:25:44;101893.86;;;0.72;100.00
54872;BME280;43914;57.680;11.982;2024-03-06T02:28:11;101895.45;;;0.72;100.00
54872;BME280;43914;57.680;11.982;2024-03-06T02:30:37;101898.94;;;0.73;100.00
54872;BME280;43914;57.680;11.982;2024-03-06T02:33:03;101904.75;;;0.73;100.00
54872;BME280;43914;57.680;11.982;2024-03-06T02:35:32;101898.77;;;0.73;100.00
54872;BME280;43914;57.680;11.982;2024-03-06T02:38:00;101899.03;;;0.74;100.00
54872;BME280;43914;57.680;11.982;2024-03-06T02:40:26;101898.11;;;0.75;100.00
54872;BME280;43914;57.680;11.982;2024-03-06T02:42:51;101896.89;;;0.75;100.00
54872;BME280;43914;57.680;11.982;2024-03-06T02:45:16;101903.40;;;0.75;100.00
54872;BME280;43914;57.680;11.982;2024-03-06T02:47:42;101904.17;;;0.74;100.00
54872;BME280;43914;57.680;11.982;2024-03-06T02:50:09;101903.48;;;0.74;100.00
54872;BME280;43914;57.680;11.982;2024-03-06T02:52:35;101904.23;;;0.73;100.00
54872;BME280;43914;57.680;11.982;2024-03-06T02:55:01;101905.30;;;0.72;100.00
54872;BME280;43914;57.680;11.982;2024-03-06T02:57:27;101901.41;;;0.70;100.00
54872;BME280;43914;57.680;11.982;2024-03-06T02:59:57;101903.92;;;0.69;100.00
54872;BME280;43914;57.680;11.982;2024-03-06T03:02:23;101909.75;;;0.66;100.00
54872;BME280;43914;57.680;11.982;2024-03-06T03:04:49;101911.55;;;0.62;100.00
54872;BME280;43914;57.680;11.982;2024-03-06T03:07:15;101910.26;;;0.60;100.00
54872;BME280;43914;57.680;11.982;2024-03-06T03:09:40;101910.93;;;0.57;100.00
54872;BME280;43914;57.680;11.982;2024-03-06T03:12:06;101912.59;;;0.56;100.00
54872;BME280;43914;57.680;11.982;2024-03-06T03:14:32;101918.32;;;0.55;100.00
54872;BME280;43914;57.680;11.982;2024-03-06T03:17:00;101920.52;;;0.54;100.00
54872;BME280;43914;57.680;11.982;2024-03-06T03:19:25;101916.02;;;0.52;100.00
54872;BME280;43914;57.680;11.982;2024-03-06T03:21:51;101923.48;;;0.51;100.00
54872;BME280;43914;57.680;11.982;2024-03-06T03:24:16;101920.96;;;0.49;100.00
54872;BME280;43914;57.680;11.982;2024-03-06T03:26:44;101917.13;;;0.48;100.00
54872;BME280;43914;57.680;11.982;2024-03-06T03:29:09;101920.68;;;0.48;100.00
54872;BME280;43914;57.680;11.982;2024-03-06T03:31:34;101926.01;;;0.47;100.00
54872;BME280;43914;57.680;11.982;2024-03-06T03:34:01;101924.98;;;0.47;100.00
54872;BME280;43914;57.680;11.982;2024-03-06T03:36:26;101925.63;;;0.47;100.00
54872;BME280;43914;57.680;11.982;2024-03-06T03:38:52;101925.98;;;0.48;100.00
54872;BME280;43914;57.680;11.982;2024-03-06T03:41:17;101925.33;;;0.47;100.00
54872;BME280;43914;57.680;11.982;2024-03-06T03:43:42;101920.97;;;0.46;100.00
54872;BME280;43914;57.680;11.982;2024-03-06T03:46:08;101916.27;;;0.44;100.00
54872;BME280;43914;57.680;11.982;2024-03-06T03:48:35;101907.00;;;0.43;100.00
54872;BME280;43914;57.680;11.982;2024-03-06T03:51:05;101907.42;;;0.42;100.00
54872;BME280;43914;57.680;11.982;2024-03-06T03:53:35;101905.71;;;0.41;100.00
54872;BME280;43914;57.680;11.982;2024-03-06T03:56:01;101906.34;;;0.42;100.00
54872;BME280;43914;57.680;11.982;2024-03-06T03:58:26;101906.89;;;0.42;100.00
54872;BME280;43914;57.680;11.982;2024-03-06T04:00:52;101910.54;;;0.43;100.00
54872;BME280;43914;57.680;11.982;2024-03-06T04:03:21;101916.55;;;0.43;100.00
54872;BME280;43914;57.680;11.982;2024-03-06T04:05:48;101920.45;;;0.42;100.00
54872;BME280;43914;57.680;11.982;2024-03-06T04:08:14;101922.20;;;0.42;100.00
54872;BME280;43914;57.680;11.982;2024-03-06T04:10:39;101923.52;;;0.44;100.00
54872;BME280;43914;57.680;11.982;2024-03-06T04:13:05;101923.86;;;0.45;100.00
54872;BME280;43914;57.680;11.982;2024-03-06T04:15:31;101927.15;;;0.46;100.00
54872;BME280;43914;57.680;11.982;2024-03-06T04:17:56;101928.38;;;0.46;100.00
54872;BME280;43914;57.680;11.982;2024-03-06T04:20:22;101928.23;;;0.45;100.00
54872;BME280;43914;57.680;11.982;2024-03-06T04:22:50;101926.66;;;0.45;100.00
54872;BME280;43914;57.680;11.982;2024-03-06T04:25:17;101929.69;;;0.44;100.00
54872;BME280;43914;57.680;11.982;2024-03-06T04:27:43;101924.45;;;0.43;100.00
54872;BME280;43914;57.680;11.982;2024-03-06T04:30:10;101927.77;;;0.43;100.00
54872;BME280;43914;57.680;11.982;2024-03-06T04:32:36;101924.75;;;0.41;100.00
54872;BME280;43914;57.680;11.982;2024-03-06T04:35:01;101932.15;;;0.41;100.00
54872;BME280;43914;57.680;11.982;2024-03-06T04:37:27;101928.49;;;0.40;100.00
54872;BME280;43914;57.680;11.982;2024-03-06T04:39:54;101928.33;;;0.40;100.00
54872;BME280;43914;57.680;11.982;2024-03-06T04:42:20;101933.56;;;0.41;100.00
54872;BME280;43914;57.680;11.982;2024-03-06T04:44:45;101932.02;;;0.40;100.00
54872;BME280;43914;57.680;11.982;2024-03-06T04:47:11;101930.68;;;0.39;100.00
54872;BME280;43914;57.680;11.982;2024-03-06T04:49:36;101932.80;;;0.39;100.00
54872;BME280;43914;57.680;11.982;2024-03-06T04:52:02;101939.15;;;0.39;100.00
54872;BME280;43914;57.680;11.982;2024-03-06T04:54:28;101939.52;;;0.39;100.00
54872;BME280;43914;57.680;11.982;2024-03-06T04:56:55;101941.42;;;0.39;100.00
54872;BME280;43914;57.680;11.982;2024-03-06T04:59:20;101938.81;;;0.39;100.00
54872;BME280;43914;57.680;11.982;2024-03-06T05:01:46;101944.56;;;0.37;100.00
54872;BME280;43914;57.680;11.982;2024-03-06T05:04:11;101949.15;;;0.37;100.00
54872;BME280;43914;57.680;11.982;2024-03-06T05:06:37;101952.68;;;0.37;100.00
54872;BME280;43914;57.680;11.982;2024-03-06T05:09:03;101954.47;;;0.36;100.00
54872;BME280;43914;57.680;11.982;2024-03-06T05:11:30;101962.37;;;0.37;100.00
54872;BME280;43914;57.680;11.982;2024-03-06T05:14:00;101964.16;;;0.37;100.00
54872;BME280;43914;57.680;11.982;2024-03-06T05:16:26;101966.59;;;0.37;100.00
54872;BME280;43914;57.680;11.982;2024-03-06T05:18:52;101969.84;;;0.36;100.00
54872;BME280;43914;57.680;11.982;2024-03-06T05:21:18;101971.08;;;0.36;100.00
54872;BME280;43914;57.680;11.982;2024-03-06T05:23:44;101972.04;;;0.35;100.00
54872;BME280;43914;57.680;11.982;2024-03-06T05:26:09;101975.03;;;0.31;100.00
54872;BME280;43914;57.680;11.982;2024-03-06T05:28:34;101983.27;;;0.29;100.00
54872;BME280;43914;57.680;11.982;2024-03-06T05:31:00;101986.42;;;0.26;100.00
54872;BME280;43914;57.680;11.982;2024-03-06T05:33:26;101983.71;;;0.24;100.00
54872;BME280;43914;57.680;11.982;2024-03-06T05:35:53;101985.34;;;0.20;100.00
54872;BME280;43914;57.680;11.982;2024-03-06T05:38:19;101985.77;;;0.19;100.00
54872;BME280;43914;57.680;11.982;2024-03-06T05:40:44;101991.63;;;0.18;100.00
54872;BME280;43914;57.680;11.982;2024-03-06T05:43:10;101994.35;;;0.17;100.00
54872;BME280;43914;57.680;11.982;2024-03-06T05:45:36;101992.69;;;0.15;100.00
54872;BME280;43914;57.680;11.982;2024-03-06T05:48:01;101993.54;;;0.15;100.00
54872;BME280;43914;57.680;11.982;2024-03-06T05:50:29;101994.73;;;0.16;100.00
54872;BME280;43914;57.680;11.982;2024-03-06T05:52:55;101997.27;;;0.15;100.00
54872;BME280;43914;57.680;11.982;2024-03-06T05:55:20;101997.19;;;0.16;100.00
54872;BME280;43914;57.680;11.982;2024-03-06T05:57:46;102000.70;;;0.16;100.00
54872;BME280;43914;57.680;11.982;2024-03-06T06:00:13;102000.98;;;0.18;100.00
54872;BME280;43914;57.680;11.982;2024-03-06T06:02:38;102004.61;;;0.19;100.00
54872;BME280;43914;57.680;11.982;2024-03-06T06:05:05;102001.22;;;0.20;100.00
54872;BME280;43914;57.680;11.982;2024-03-06T06:07:30;102005.14;;;0.22;100.00
54872;BME280;43914;57.680;11.982;2024-03-06T06:09:56;102011.02;;;0.24;100.00
54872;BME280;43914;57.680;11.982;2024-03-06T06:12:21;102012.70;;;0.26;100.00
54872;BME280;43914;57.680;11.982;2024-03-06T06:14:46;102014.08;;;0.26;100.00
54872;BME280;43914;57.680;11.982;2024-03-06T06:17:12;102013.98;;;0.28;100.00
54872;BME280;43914;57.680;11.982;2024-03-06T06:19:42;102014.25;;;0.30;100.00
54872;BME280;43914;57.680;11.982;2024-03-06T06:22:09;102018.56;;;0.31;100.00
54872;BME280;43914;57.680;11.982;2024-03-06T06:24:38;102021.36;;;0.32;100.00
54872;BME280;43914;57.680;11.982;2024-03-06T06:27:04;102022.78;;;0.32;100.00
54872;BME280;43914;57.680;11.982;2024-03-06T06:29:29;102030.16;;;0.32;100.00
54872;BME280;43914;57.680;11.982;2024-03-06T06:31:56;102029.40;;;0.33;100.00
54872;BME280;43914;57.680;11.982;2024-03-06T06:34:22;102030.95;;;0.34;100.00
54872;BME280;43914;57.680;11.982;2024-03-06T06:36:48;102031.43;;;0.35;100.00
54872;BME280;43914;57.680;11.982;2024-03-06T06:39:13;102039.23;;;0.37;100.00
54872;BME280;43914;57.680;11.982;2024-03-06T06:41:39;102039.01;;;0.38;100.00
54872;BME280;43914;57.680;11.982;2024-03-06T06:44:07;102043.35;;;0.39;100.00
54872;BME280;43914;57.680;11.982;2024-03-06T06:46:33;102045.17;;;0.41;100.00
54872;BME280;43914;57.680;11.982;2024-03-06T06:48:59;102048.98;;;0.42;100.00
54872;BME280;43914;57.680;11.982;2024-03-06T06:51:24;102052.05;;;0.44;100.00
54872;BME280;43914;57.680;11.982;2024-03-06T06:53:50;102051.95;;;0.46;100.00
54872;BME280;43914;57.680;11.982;2024-03-06T06:56:15;102054.64;;;0.49;100.00
54872;BME280;43914;57.680;11.982;2024-03-06T06:58:41;102056.27;;;0.51;100.00
54872;BME280;43914;57.680;11.982;2024-03-06T07:01:09;102056.83;;;0.54;100.00
54872;BME280;43914;57.680;11.982;2024-03-06T07:03:35;102066.71;;;0.57;100.00
54872;BME280;43914;57.680;11.982;2024-03-06T07:06:00;102068.25;;;0.58;100.00
54872;BME280;43914;57.680;11.982;2024-03-06T07:08:28;102071.00;;;0.62;100.00
54872;BME280;43914;57.680;11.982;2024-03-06T07:10:53;102074.64;;;0.63;100.00
54872;BME280;43914;57.680;11.982;2024-03-06T07:13:20;102077.86;;;0.66;100.00
54872;BME280;43914;57.680;11.982;2024-03-06T07:15:46;102078.41;;;0.68;100.00
54872;BME280;43914;57.680;11.982;2024-03-06T07:18:12;102084.98;;;0.71;100.00
54872;BME280;43914;57.680;11.982;2024-03-06T07:20:39;102084.31;;;0.73;100.00
54872;BME280;43914;57.680;11.982;2024-03-06T07:23:05;102088.19;;;0.77;100.00
54872;BME280;43914;57.680;11.982;2024-03-06T07:25:30;102089.59;;;0.80;100.00
54872;BME280;43914;57.680;11.982;2024-03-06T07:27:56;102092.90;;;0.84;100.00
54872;BME280;43914;57.680;11.982;2024-03-06T07:30:21;102096.15;;;0.85;100.00
54872;BME280;43914;57.680;11.982;2024-03-06T07:32:48;102093.96;;;0.87;100.00
54872;BME280;43914;57.680;11.982;2024-03-06T07:35:13;102093.70;;;0.89;100.00
54872;BME280;43914;57.680;11.982;2024-03-06T07:37:39;102095.85;;;0.91;100.00
54872;BME280;43914;57.680;11.982;2024-03-06T07:40:06;102092.73;;;0.93;100.00
54872;BME280;43914;57.680;11.982;2024-03-06T07:42:32;102098.84;;;0.95;100.00
54872;BME280;43914;57.680;11.982;2024-03-06T07:44:58;102097.29;;;0.97;100.00
54872;BME280;43914;57.680;11.982;2024-03-06T07:47:24;102094.70;;;0.99;100.00
54872;BME280;43914;57.680;11.982;2024-03-06T07:49:50;102095.42;;;1.02;100.00
54872;BME280;43914;57.680;11.982;2024-03-06T07:52:16;102099.14;;;1.05;100.00
54872;BME280;43914;57.680;11.982;2024-03-06T07:54:41;102099.89;;;1.07;100.00
54872;BME280;43914;57.680;11.982;2024-03-06T07:57:07;102104.44;;;1.11;100.00
54872;BME280;43914;57.680;11.982;2024-03-06T07:59:32;102103.27;;;1.13;100.00
54872;BME280;43914;57.680;11.982;2024-03-06T08:01:57;102109.51;;;1.33;100.00
54872;BME280;43914;57.680;11.982;2024-03-06T08:04:23;102113.65;;;1.51;100.00
54872;BME280;43914;57.680;11.982;2024-03-06T08:06:49;102113.80;;;1.54;100.00
54872;BME280;43914;57.680;11.982;2024-03-06T08:09:14;102115.23;;;1.53;100.00
54872;BME280;43914;57.680;11.982;2024-03-06T08:11:44;102115.58;;;1.53;100.00
54872;BME280;43914;57.680;11.982;2024-03-06T08:14:10;102120.91;;;1.56;100.00
54872;BME280;43914;57.680;11.982;2024-03-06T08:16:35;102122.94;;;1.57;100.00
54872;BME280;43914;57.680;11.982;2024-03-06T08:19:03;102127.10;;;1.56;100.00
54872;BME280;43914;57.680;11.982;2024-03-06T08:21:28;102126.28;;;1.54;100.00
54872;BME280;43914;57.680;11.982;2024-03-06T08:23:54;102129.38;;;1.56;100.00
54872;BME280;43914;57.680;11.982;2024-03-06T08:26:19;102134.84;;;1.56;100.00
54872;BME280;43914;57.680;11.982;2024-03-06T08:28:45;102131.41;;;1.55;100.00
54872;BME280;43914;57.680;11.982;2024-03-06T08:31:10;102136.33;;;1.55;100.00
54872;BME280;43914;57.680;11.982;2024-03-06T08:33:35;102133.73;;;1.60;100.00
54872;BME280;43914;57.680;11.982;2024-03-06T08:36:03;102130.21;;;1.64;100.00
54872;BME280;43914;57.680;11.982;2024-03-06T08:38:28;102135.11;;;1.66;100.00
54872;BME280;43914;57.680;11.982;2024-03-06T08:40:54;102135.42;;;1.67;100.00
54872;BME280;43914;57.680;11.982;2024-03-06T08:43:19;102135.69;;;1.69;100.00
54872;BME280;43914;57.680;11.982;2024-03-06T08:45:45;102134.56;;;1.73;100.00
54872;BME280;43914;57.680;11.982;2024-03-06T08:48:11;102139.30;;;1.77;100.00
54872;BME280;43914;57.680;11.982;2024-03-06T08:53:03;102141.39;;;1.78;100.00
54872;BME280;43914;57.680;11.982;2024-03-06T08:55:29;102143.84;;;1.81;100.00
54872;BME280;43914;57.680;11.982;2024-03-06T08:57:54;102141.25;;;1.80;100.00
54872;BME280;43914;57.680;11.982;2024-03-06T09:00:20;102146.01;;;1.80;100.00
54872;BME280;43914;57.680;11.982;2024-03-06T09:02:45;102150.52;;;1.81;100.00
54872;BME280;43914;57.680;11.982;2024-03-06T09:05:11;102150.95;;;1.83;100.00
54872;BME280;43914;57.680;11.982;2024-03-06T09:07:38;102147.57;;;1.86;100.00
54872;BME280;43914;57.680;11.982;2024-03-06T09:10:12;102150.58;;;1.92;100.00
54872;BME280;43914;57.680;11.982;2024-03-06T09:12:38;102151.36;;;1.97;100.00
54872;BME280;43914;57.680;11.982;2024-03-06T09:15:04;102152.80;;;2.02;100.00
54872;BME280;43914;57.680;11.982;2024-03-06T09:17:32;102156.23;;;2.07;100.00
54872;BME280;43914;57.680;11.982;2024-03-06T09:19:58;102160.77;;;2.11;100.00
54872;BME280;43914;57.680;11.982;2024-03-06T09:22:23;102156.86;;;2.11;100.00
54872;BME280;43914;57.680;11.982;2024-03-06T09:24:49;102161.02;;;2.12;100.00
54872;BME280;43914;57.680;11.982;2024-03-06T09:27:17;102160.08;;;2.14;100.00
54872;BME280;43914;57.680;11.982;2024-03-06T09:29:43;102162.58;;;2.16;100.00
54872;BME280;43914;57.680;11.982;2024-03-06T09:32:09;102162.65;;;2.18;100.00
54872;BME280;43914;57.680;11.982;2024-03-06T09:34:34;102157.45;;;2.19;100.00
54872;BME280;43914;57.680;11.982;2024-03-06T09:37:00;102161.00;;;2.22;100.00
54872;BME280;43914;57.680;11.982;2024-03-06T09:39:26;102160.47;;;2.25;100.00
54872;BME280;43914;57.680;11.982;2024-03-06T09:41:53;102156.38;;;2.27;100.00
54872;BME280;43914;57.680;11.982;2024-03-06T09:44:20;102162.77;;;2.33;100.00
54872;BME280;43914;57.680;11.982;2024-03-06T09:46:48;102165.20;;;2.40;100.00
54872;BME280;43914;57.680;11.982;2024-03-06T09:49:18;102164.23;;;2.44;100.00
54872;BME280;43914;57.680;11.982;2024-03-06T09:51:48;102168.73;;;2.49;100.00
54872;BME280;43914;57.680;11.982;2024-03-06T09:54:19;102172.20;;;2.53;100.00
54872;BME280;43914;57.680;11.982;2024-03-06T09:56:46;102166.35;;;2.56;100.00
54872;BME280;43914;57.680;11.982;2024-03-06T09:59:12;102172.05;;;2.60;100.00
54872;BME280;43914;57.680;11.982;2024-03-06T10:01:57;102174.54;;;2.63;100.00
54872;BME280;43914;57.680;11.982;2024-03-06T10:04:25;102179.57;;;2.62;100.00
54872;BME280;43914;57.680;11.982;2024-03-06T10:07:00;102181.11;;;2.60;100.00
54872;BME280;43914;57.680;11.982;2024-03-06T10:09:28;102178.72;;;2.62;100.00
54872;BME280;43914;57.680;11.982;2024-03-06T10:11:54;102181.40;;;2.61;100.00
54872;BME280;43914;57.680;11.982;2024-03-06T10:14:22;102184.15;;;2.59;100.00
54872;BME280;43914;57.680;11.982;2024-03-06T10:17:00;102184.48;;;2.60;100.00
54872;BME280;43914;57.680;11.982;2024-03-06T10:19:29;102180.40;;;2.60;100.00
54872;BME280;43914;57.680;11.982;2024-03-06T10:21:57;102179.52;;;2.60;100.00
54872;BME280;43914;57.680;11.982;2024-03-06T10:24:25;102182.70;;;2.63;100.00
54872;BME280;43914;57.680;11.982;2024-03-06T10:26:51;102182.04;;;2.65;100.00
54872;BME280;43914;57.680;11.982;2024-03-06T10:29:21;102183.31;;;2.70;100.00
54872;BME280;43914;57.680;11.982;2024-03-06T10:31:51;102184.86;;;2.74;100.00
54872;BME280;43914;57.680;11.982;2024-03-06T10:34:17;102186.77;;;2.77;100.00
54872;BME280;43914;57.680;11.982;2024-03-06T10:36:43;102187.67;;;2.80;100.00
54872;BME280;43914;57.680;11.982;2024-03-06T10:39:11;102191.77;;;2.82;100.00
54872;BME280;43914;57.680;11.982;2024-03-06T10:41:40;102193.55;;;2.85;100.00
54872;BME280;43914;57.680;11.982;2024-03-06T10:44:14;102193.31;;;2.88;100.00
54872;BME280;43914;57.680;11.982;2024-03-06T10:46:43;102193.36;;;2.96;100.00
54872;BME280;43914;57.680;11.982;2024-03-06T10:49:12;102187.88;;;3.02;100.00
54872;BME280;43914;57.680;11.982;2024-03-06T10:51:44;102186.49;;;3.10;100.00
54872;BME280;43914;57.680;11.982;2024-03-06T10:54:12;102187.91;;;3.18;100.00
54872;BME280;43914;57.680;11.982;2024-03-06T10:56:39;102185.03;;;3.30;100.00
54872;BME280;43914;57.680;11.982;2024-03-06T10:59:10;102186.79;;;3.41;100.00
54872;BME280;43914;57.680;11.982;2024-03-06T11:01:37;102185.45;;;3.53;100.00
54872;BME280;43914;57.680;11.982;2024-03-06T11:04:03;102187.85;;;3.65;100.00
54872;BME280;43914;57.680;11.982;2024-03-06T11:06:29;102184.84;;;3.76;100.00
54872;BME280;43914;57.680;11.982;2024-03-06T11:08:54;102191.73;;;3.84;100.00
54872;BME280;43914;57.680;11.982;2024-03-06T11:11:24;102186.56;;;3.92;100.00
54872;BME280;43914;57.680;11.982;2024-03-06T11:13:59;102186.73;;;4.03;100.00
54872;BME280;43914;57.680;11.982;2024-03-06T11:16:30;102189.19;;;4.11;100.00
54872;BME280;43914;57.680;11.982;2024-03-06T11:19:06;102188.49;;;4.16;100.00
54872;BME280;43914;57.680;11.982;2024-03-06T11:21:35;102187.67;;;4.17;100.00
54872;BME280;43914;57.680;11.982;2024-03-06T11:24:21;102185.47;;;4.21;100.00
54872;BME280;43914;57.680;11.982;2024-03-06T11:26:57;102189.86;;;4.30;100.00
54872;BME280;43914;57.680;11.982;2024-03-06T11:29:24;102192.98;;;4.36;100.00
54872;BME280;43914;57.680;11.982;2024-03-06T11:32:05;102191.38;;;4.36;100.00
54872;BME280;43914;57.680;11.982;2024-03-06T11:34:35;102188.16;;;4.42;100.00
54872;BME280;43914;57.680;11.982;2024-03-06T11:37:05;102187.04;;;4.50;100.00
54872;BME280;43914;57.680;11.982;2024-03-06T11:39:33;102185.33;;;4.59;100.00
54872;BME280;43914;57.680;11.982;2024-03-06T11:42:00;102189.04;;;4.70;100.00
54872;BME280;43914;57.680;11.982;2024-03-06T11:44:26;102188.27;;;4.76;100.00
54872;BME280;43914;57.680;11.982;2024-03-06T11:46:58;102188.60;;;4.81;100.00
54872;BME280;43914;57.680;11.982;2024-03-06T11:49:30;102194.39;;;4.84;100.00
54872;BME280;43914;57.680;11.982;2024-03-06T11:52:06;102196.30;;;4.90;100.00
54872;BME280;43914;57.680;11.982;2024-03-06T11:54:33;102199.66;;;4.96;100.00
54872;BME280;43914;57.680;11.982;2024-03-06T11:57:01;102195.40;;;4.95;100.00
54872;BME280;43914;57.680;11.982;2024-03-06T11:59:32;102190.42;;;5.00;100.00
54872;BME280;43914;57.680;11.982;2024-03-06T12:01:59;102191.77;;;5.11;100.00
54872;BME280;43914;57.680;11.982;2024-03-06T12:04:28;102192.09;;;5.09;99.78
54872;BME280;43914;57.680;11.982;2024-03-06T12:06:58;102194.52;;;5.02;98.72
54872;BME280;43914;57.680;11.982;2024-03-06T12:09:25;102192.34;;;4.96;97.82
54872;BME280;43914;57.680;11.982;2024-03-06T12:11:52;102198.25;;;4.95;99.60
54872;BME280;43914;57.680;11.982;2024-03-06T12:14:18;102199.16;;;4.95;98.23
54872;BME280;43914;57.680;11.982;2024-03-06T12:16:57;102196.67;;;4.92;98.70
54872;BME280;43914;57.680;11.982;2024-03-06T12:19:28;102191.54;;;4.97;99.68
54872;BME280;43914;57.680;11.982;2024-03-06T12:21:55;102195.30;;;4.99;97.35
54872;BME280;43914;57.680;11.982;2024-03-06T12:24:20;102194.98;;;4.98;97.86
54872;BME280;43914;57.680;11.982;2024-03-06T12:26:47;102196.91;;;4.99;98.65
54872;BME280;43914;57.680;11.982;2024-03-06T12:29:22;102195.47;;;4.99;98.29
54872;BME280;43914;57.680;11.982;2024-03-06T12:31:48;102194.09;;;5.06;99.75
54872;BME280;43914;57.680;11.982;2024-03-06T12:34:14;102188.09;;;5.10;96.34
54872;BME280;43914;57.680;11.982;2024-03-06T12:36:43;102196.58;;;5.08;95.37
54872;BME280;43914;57.680;11.982;2024-03-06T12:39:10;102193.71;;;5.06;95.03
54872;BME280;43914;57.680;11.982;2024-03-06T12:41:39;102196.59;;;5.06;94.90